Time;durP1;ratioP1;P1;durP2;ratioP2;P2;SDS_P1;SDS_P2;PMS_P1;PMS_P2;Temp;Humidity;BMP_temperature;BMP_pressure;BME280_temperature;BME280_humidity;BME280_pressure;Samples;Min_cycle;Max_cycle;Signal;HPM_P1;HPM_P2
2023/07/16 00:02:24;;;;;;;10.43;3.17;;;;;;;18.04;100.00;100814.56;5031772;28;20083;-62
2023/07/16 00:04:50;;;;;;;7.88;2.85;;;;;;;17.99;100.00;100830.84;5031435;28;20155;-64
2023/07/16 00:07:15;;;;;;;10.57;3.10;;;;;;;17.99;100.00;100816.66;5029019;28;20022;-66
2023/07/16 00:09:40;;;;;;;11.45;3.00;;;;;;;18.02;100.00;100814.66;5031091;28;20064;-66
2023/07/16 00:12:06;;;;;;;9.10;3.13;;;;;;;18.03;100.00;100821.69;5030759;28;20032;-66
2023/07/16 00:14:31;;;;;;;12.43;3.67;;;;;;;18.00;100.00;100815.72;5031239;28;20028;-65
2023/07/16 00:16:57;;;;;;;7.10;2.97;;;;;;;17.99;100.00;100824.66;5031502;28;20021;-65
2023/07/16 00:19:23;;;;;;;8.00;3.08;;;;;;;17.99;100.00;100819.31;5030638;28;20027;-65
2023/07/16 00:21:48;;;;;;;13.45;3.67;;;;;;;18.00;100.00;100816.56;5030506;28;20032;-66
2023/07/16 00:24:13;;;;;;;5.32;2.80;;;;;;;18.06;100.00;100815.28;5031053;28;20064;-61
2023/07/16 00:26:39;;;;;;;8.10;3.38;;;;;;;18.05;100.00;100813.59;5030283;28;20033;-61
2023/07/16 00:29:04;;;;;;;10.18;3.45;;;;;;;17.92;100.00;100818.91;5031362;28;20025;-63
2023/07/16 00:31:30;;;;;;;12.27;3.63;;;;;;;17.91;100.00;100819.84;5030305;28;20487;-64
2023/07/16 00:33:56;;;;;;;9.70;2.97;;;;;;;17.90;100.00;100819.00;5012047;28;20036;-60
2023/07/16 00:36:21;;;;;;;9.95;3.08;;;;;;;17.93;100.00;100815.25;5010048;28;20104;-65
2023/07/16 00:38:46;;;;;;;13.50;3.50;;;;;;;17.85;100.00;100826.41;5009829;28;20033;-64
2023/07/16 00:41:14;;;;;;;10.95;3.50;;;;;;;17.88;100.00;100812.06;5011214;28;20025;-65
2023/07/16 00:43:39;;;;;;;14.25;3.88;;;;;;;17.86;100.00;100820.16;5009979;28;20026;-65
2023/07/16 00:46:04;;;;;;;9.00;3.53;;;;;;;17.83;100.00;100822.16;5010864;28;20030;-66
2023/07/16 00:48:30;;;;;;;16.98;3.90;;;;;;;17.81;100.00;100827.56;5010592;28;20033;-63
2023/07/16 00:50:56;;;;;;;12.02;3.05;;;;;;;17.90;100.00;100816.31;5010574;28;20073;-64
2023/07/16 00:53:21;;;;;;;13.05;3.78;;;;;;;17.91;100.00;100818.03;5009996;28;20069;-64
2023/07/16 00:55:46;;;;;;;14.80;4.05;;;;;;;17.92;100.00;100826.88;5010610;28;20498;-64
2023/07/16 00:58:12;;;;;;;12.45;3.47;;;;;;;17.86;100.00;100828.16;5028796;28;20079;-67
2023/07/16 01:00:39;;;;;;;12.57;3.85;;;;;;;17.87;100.00;100843.19;5030222;28;20029;-64
2023/07/16 01:03:07;;;;;;;12.95;4.57;;;;;;;17.90;100.00;100826.13;5029628;28;20029;-66
2023/07/16 01:05:50;;;;;;;10.15;3.80;;;;;;;17.85;100.00;100826.41;5028342;28;20759;-64
2023/07/16 01:08:21;;;;;;;11.45;3.88;;;;;;;17.86;100.00;100829.94;5029663;28;20033;-64
2023/07/16 01:10:47;;;;;;;15.75;3.70;;;;;;;17.85;100.00;100830.91;5028587;28;20037;-64
2023/07/16 01:13:13;;;;;;;11.00;3.83;;;;;;;17.76;100.00;100827.88;5029044;28;20289;-66
2023/07/16 01:15:38;;;;;;;18.42;4.00;;;;;;;17.77;100.00;100821.59;5028865;28;20459;-65
2023/07/16 01:18:05;;;;;;;9.82;3.85;;;;;;;17.77;100.00;100829.59;5010622;28;20036;-65
2023/07/16 01:20:31;;;;;;;14.93;4.35;;;;;;;17.78;100.00;100835.78;5008689;28;20022;-66
2023/07/16 01:23:16;;;;;;;8.52;3.90;;;;;;;17.90;100.00;100829.66;5010626;28;20491;-64
2023/07/16 01:26:02;;;;;;;13.98;4.60;;;;;;;17.94;100.00;100832.97;5022361;28;20033;-64
2023/07/16 01:28:43;;;;;;;16.73;4.32;;;;;;;17.95;100.00;100826.69;5008468;28;20092;-63
2023/07/16 01:31:10;;;;;;;13.52;4.22;;;;;;;17.90;100.00;100829.66;5009430;28;20029;-67
2023/07/16 01:33:37;;;;;;;10.30;4.53;;;;;;;17.89;100.00;100821.75;5009959;28;20030;-65
2023/07/16 01:36:02;;;;;;;15.05;4.68;;;;;;;17.86;100.00;100829.94;5008338;28;20026;-63
2023/07/16 01:38:28;;;;;;;14.13;4.95;;;;;;;17.92;100.00;100825.09;5009474;28;20033;-68
2023/07/16 01:40:53;;;;;;;16.48;5.32;;;;;;;17.96;100.00;100824.84;5010540;28;20037;-64
2023/07/16 01:43:20;;;;;;;14.40;5.38;;;;;;;17.92;100.00;100822.44;5011690;28;20053;-64
2023/07/16 01:45:45;;;;;;;12.93;4.97;;;;;;;17.94;100.00;100836.50;5009829;28;20025;-64
2023/07/16 01:48:30;;;;;;;11.40;5.00;;;;;;;17.99;100.00;100832.66;5009379;28;20041;-61
2023/07/16 01:50:55;;;;;;;18.23;5.38;;;;;;;17.96;100.00;100833.72;5009811;28;20105;-66
2023/07/16 01:53:21;;;;;;;12.93;5.15;;;;;;;17.90;100.00;100827.00;5009701;28;20096;-63
2023/07/16 01:55:46;;;;;;;13.80;5.13;;;;;;;17.88;100.00;100820.88;5009205;28;20034;-64
2023/07/16 01:58:12;;;;;;;15.23;5.35;;;;;;;17.91;100.00;100833.19;5015226;28;20021;-65
2023/07/16 02:00:37;;;;;;;16.92;5.47;;;;;;;17.93;100.00;100824.13;5048915;28;20444;-65
2023/07/16 02:03:02;;;;;;;19.30;5.45;;;;;;;18.03;100.00;100837.69;5036747;28;20040;-60
2023/07/16 02:05:28;;;;;;;12.23;5.80;;;;;;;18.04;100.00;100830.56;5009382;28;20026;-62
2023/07/16 02:07:53;;;;;;;15.60;4.72;;;;;;;18.00;100.00;100842.38;5009199;28;20041;-66
2023/07/16 02:10:19;;;;;;;13.70;5.10;;;;;;;17.90;100.00;100837.66;5009367;28;20129;-66
2023/07/16 02:12:44;;;;;;;12.93;5.45;;;;;;;17.96;100.00;100839.06;5009395;28;20097;-58
2023/07/16 02:15:09;;;;;;;12.63;4.85;;;;;;;17.94;100.00;100833.81;5008832;28;20026;-65
2023/07/16 02:17:35;;;;;;;19.17;5.40;;;;;;;17.98;100.00;100838.94;5008810;28;20366;-66
2023/07/16 02:20:00;;;;;;;18.30;5.68;;;;;;;17.86;100.00;100828.16;5008879;28;20388;-66
2023/07/16 02:22:26;;;;;;;12.82;4.70;;;;;;;17.75;100.00;100830.63;5007987;28;21198;-63
2023/07/16 02:24:51;;;;;;;12.80;5.18;;;;;;;17.79;100.00;100818.84;5009226;28;20117;-66
2023/07/16 02:27:16;;;;;;;11.38;4.93;;;;;;;17.77;100.00;100834.06;5008782;28;20143;-65
2023/07/16 02:29:42;;;;;;;18.27;5.50;;;;;;;17.80;100.00;100825.88;5008404;28;20030;-70
2023/07/16 02:32:07;;;;;;;12.65;5.32;;;;;;;17.84;100.00;100822.06;5009601;28;20026;-62
2023/07/16 02:34:32;;;;;;;18.50;5.85;;;;;;;17.82;100.00;100818.63;5007931;28;20404;-65
2023/07/16 02:36:58;;;;;;;16.98;6.18;;;;;;;17.74;100.00;100832.47;5009754;28;20026;-62
2023/07/16 02:39:24;;;;;;;17.63;6.07;;;;;;;17.75;100.00;100839.50;5009765;28;20436;-66
2023/07/16 02:41:49;;;;;;;16.65;5.97;;;;;;;17.79;100.00;100829.50;5008755;28;20034;-61
2023/07/16 02:44:14;;;;;;;17.95;6.22;;;;;;;17.74;100.00;100832.47;5009213;28;20033;-66
2023/07/16 02:46:41;;;;;;;15.73;6.55;;;;;;;17.75;100.00;100834.16;5008902;28;20022;-67
2023/07/16 02:49:06;;;;;;;15.30;6.07;;;;;;;17.78;100.00;100841.09;5008170;28;20388;-66
2023/07/16 02:51:32;;;;;;;17.02;5.72;;;;;;;17.84;100.00;100839.84;5008157;28;20025;-68
2023/07/16 02:53:57;;;;;;;16.00;6.32;;;;;;;17.84;100.00;100838.03;5009733;28;20026;-67
2023/07/16 02:56:23;;;;;;;20.50;5.90;;;;;;;17.84;100.00;100848.69;5009402;28;20040;-67
2023/07/16 02:58:48;;;;;;;15.00;5.75;;;;;;;17.85;100.00;100849.56;5008714;28;20068;-62
2023/07/16 03:01:13;;;;;;;17.08;5.82;;;;;;;17.74;100.00;100852.91;5009191;28;20060;-68
2023/07/16 03:03:38;;;;;;;14.07;4.82;;;;;;;17.70;100.00;100846.09;5008745;28;20065;-68
2023/07/16 03:06:04;;;;;;;15.02;4.85;;;;;;;17.68;100.00;100851.50;5006210;28;20056;-66
2023/07/16 03:08:31;;;;;;;12.98;4.65;;;;;;;17.75;100.00;100849.28;5009107;28;20030;-68
2023/07/16 03:10:57;;;;;;;11.93;4.95;;;;;;;17.66;100.00;100846.28;5007246;28;20145;-67
2023/07/16 03:13:22;;;;;;;16.50;4.88;;;;;;;17.65;100.00;100849.91;5009820;28;20045;-68
2023/07/16 03:15:48;;;;;;;16.45;5.00;;;;;;;17.51;100.00;100865.88;5029152;28;20037;-67
2023/07/16 03:18:13;;;;;;;15.60;5.50;;;;;;;17.51;100.00;100848.09;5032106;28;20392;-68
2023/07/16 03:20:38;;;;;;;12.63;4.15;;;;;;;17.40;100.00;100856.75;5030336;28;20029;-69
2023/07/16 03:23:04;;;;;;;16.27;4.82;;;;;;;17.46;100.00;100863.50;5032338;28;20021;-69
2023/07/16 03:25:29;;;;;;;13.85;4.22;;;;;;;17.35;100.00;100864.19;5031376;28;20026;-69
2023/07/16 03:27:55;;;;;;;12.35;4.30;;;;;;;17.36;100.00;100886.34;5032412;28;20025;-67
2023/07/16 03:30:20;;;;;;;13.02;4.20;;;;;;;17.34;100.00;100865.13;5032726;28;20029;-67
2023/07/16 03:32:45;;;;;;;15.75;4.22;;;;;;;17.45;100.00;100877.78;5030909;28;20067;-64
2023/07/16 03:35:11;;;;;;;17.25;5.45;;;;;;;17.48;100.00;100876.72;5031716;28;20399;-68
2023/07/16 03:37:36;;;;;;;10.20;4.45;;;;;;;17.57;100.00;100878.81;5031193;28;20063;-68
2023/07/16 03:40:15;;;;;;;12.55;4.70;;;;;;;17.51;100.00;100874.75;5030900;28;20160;-67
2023/07/16 03:42:40;;;;;;;15.18;4.45;;;;;;;17.62;100.00;100881.19;5026411;28;20405;-68
2023/07/16 03:45:07;;;;;;;11.55;4.75;;;;;;;17.60;100.00;100891.94;5012242;28;20026;-67
2023/07/16 03:47:32;;;;;;;11.00;4.68;;;;;;;17.68;100.00;100896.81;5011323;28;20022;-67
2023/07/16 03:49:57;;;;;;;12.88;4.60;;;;;;;17.63;100.00;100905.09;5012072;28;20028;-67
2023/07/16 03:52:24;;;;;;;12.90;5.00;;;;;;;17.64;100.00;100893.47;5012299;28;20029;-67
2023/07/16 03:54:49;;;;;;;16.60;5.30;;;;;;;17.73;100.00;100899.19;5011243;28;20598;-66
2023/07/16 03:57:15;;;;;;;14.73;5.20;;;;;;;17.70;100.00;100907.38;5011354;28;20025;-69
2023/07/16 03:59:40;;;;;;;13.10;5.40;;;;;;;17.86;100.00;100905.44;5011690;28;20041;-64
2023/07/16 04:02:05;;;;;;;12.60;5.15;;;;;;;17.79;100.00;100904.13;5041318;28;20061;-67
2023/07/16 04:04:31;;;;;;;12.98;5.47;;;;;;;17.92;100.00;100917.50;5050696;28;20076;-67
2023/07/16 04:06:56;;;;;;;12.68;5.35;;;;;;;17.93;100.00;100912.09;5051215;28;20549;-67
2023/07/16 04:09:22;;;;;;;17.50;5.75;;;;;;;17.91;100.00;100907.81;5050692;28;20135;-61
2023/07/16 04:11:47;;;;;;;14.80;5.55;;;;;;;17.83;100.00;100916.28;5023750;28;20053;-70
2023/07/16 04:14:13;;;;;;;16.33;5.55;;;;;;;17.88;100.00;100908.84;5011736;28;20022;-69
2023/07/16 04:16:38;;;;;;;13.20;4.95;;;;;;;17.75;100.00;100918.56;5010423;28;20029;-69
2023/07/16 04:19:04;;;;;;;9.88;5.25;;;;;;;17.72;100.00;100934.75;5011502;28;20030;-67
2023/07/16 04:21:30;;;;;;;13.63;5.28;;;;;;;17.68;100.00;100926.97;5009992;28;20025;-66
2023/07/16 04:23:55;;;;;;;14.15;5.25;;;;;;;17.66;100.00;100931.53;5029947;28;20033;-64
2023/07/16 04:26:21;;;;;;;15.35;5.05;;;;;;;17.75;100.00;100929.22;5028795;28;20111;-68
2023/07/16 04:28:46;;;;;;;10.95;5.20;;;;;;;17.77;100.00;100914.03;5029296;28;20476;-66
2023/07/16 04:31:11;;;;;;;16.02;5.43;;;;;;;17.64;100.00;100924.59;5033922;28;20060;-67
2023/07/16 04:33:37;;;;;;;12.15;5.13;;;;;;;17.76;100.00;100917.66;5023384;28;20079;-66
2023/07/16 04:36:02;;;;;;;10.98;5.43;;;;;;;18.02;100.00;100936.44;5022851;28;20439;-67
2023/07/16 04:38:28;;;;;;;11.23;5.13;;;;;;;18.02;100.00;100942.63;5030603;28;20084;-68
2023/07/16 04:40:53;;;;;;;15.45;5.82;;;;;;;18.07;100.00;100939.66;5030469;28;20079;-62
2023/07/16 04:43:18;;;;;;;12.18;5.45;;;;;;;18.14;100.00;100941.00;5030262;28;20026;-69
2023/07/16 04:45:46;;;;;;;16.38;5.50;;;;;;;18.20;100.00;100945.09;5030476;28;20112;-67
2023/07/16 04:48:12;;;;;;;10.85;5.60;;;;;;;18.31;100.00;100941.72;5030232;28;20013;-68
2023/07/16 04:50:38;;;;;;;10.77;5.05;;;;;;;18.24;100.00;100940.44;5029741;28;20498;-69
2023/07/16 04:53:04;;;;;;;16.52;5.78;;;;;;;18.15;100.00;100942.72;5030605;28;20048;-68
2023/07/16 04:55:29;;;;;;;12.00;5.15;;;;;;;18.24;100.00;100948.44;5029434;28;20476;-66
2023/07/16 04:57:56;;;;;;;11.48;5.50;;;;;;;18.08;100.00;100943.16;5030266;28;20083;-65
2023/07/16 05:00:22;;;;;;;16.90;5.35;;;;;;;18.12;100.00;100958.91;5030299;28;20033;-66
2023/07/16 05:02:47;;;;;;;13.85;5.45;;;;;;;18.00;100.00;100949.03;5030051;28;20111;-64
2023/07/16 05:05:13;;;;;;;16.88;5.30;;;;;;;18.00;100.00;100960.53;5028365;28;20384;-68
2023/07/16 05:07:38;;;;;;;12.30;5.18;;;;;;;18.09;100.00;100958.25;5028819;28;20100;-69
2023/07/16 05:10:04;;;;;;;11.10;4.80;;;;;;;17.98;100.00;100954.44;5029478;28;20422;-68
2023/07/16 05:12:30;;;;;;;12.38;4.60;;;;;;;18.10;100.00;100963.50;5029577;28;20037;-69
2023/07/16 05:14:55;;;;;;;9.95;4.57;;;;;;;18.10;100.00;100949.28;5028995;28;20034;-67
2023/07/16 05:17:20;;;;;;;10.75;4.60;;;;;;;18.11;100.00;100973.22;5029711;28;20482;-65
2023/07/16 05:19:46;;;;;;;11.85;4.53;;;;;;;18.10;100.00;100949.28;5028989;28;20064;-68
2023/07/16 05:22:11;;;;;;;14.57;5.18;;;;;;;18.09;100.00;100964.41;5016205;28;20036;-66
2023/07/16 05:24:36;;;;;;;12.32;4.70;;;;;;;18.23;100.00;100970.69;5008765;28;20101;-67
2023/07/16 05:27:02;;;;;;;13.38;5.40;;;;;;;18.23;100.00;100960.91;5008892;28;20022;-66
2023/07/16 05:29:27;;;;;;;15.45;4.75;;;;;;;18.18;100.00;100973.66;5010886;28;20017;-65
2023/07/16 05:31:53;;;;;;;12.80;5.43;;;;;;;18.19;100.00;100975.38;5010440;28;20104;-67
2023/07/16 05:34:18;;;;;;;14.43;5.22;;;;;;;18.22;100.00;100985.00;5040735;28;20055;-67
2023/07/16 05:36:46;;;;;;;13.00;5.22;;;;;;;18.36;100.00;100971.63;5029177;28;20033;-66
2023/07/16 05:39:15;;;;;;;12.98;5.28;;;;;;;18.24;100.00;100977.75;5029132;28;20049;-64
2023/07/16 05:41:41;;;;;;;13.32;4.47;;;;;;;18.47;100.00;100994.94;5029213;28;20108;-65
2023/07/16 05:44:06;;;;;;;14.75;5.55;;;;;;;18.60;100.00;100978.13;5016956;28;20036;-64
2023/07/16 05:46:33;;;;;;;12.45;4.90;;;;;;;18.52;100.00;100994.63;5029449;28;20022;-65
2023/07/16 05:48:58;;;;;;;17.40;4.88;;;;;;;18.82;100.00;100982.91;5029493;28;20391;-61
2023/07/16 05:51:23;;;;;;;14.13;5.22;;;;;;;19.04;100.00;100984.97;5029235;28;20053;-66
2023/07/16 05:53:49;;;;;;;14.18;4.85;;;;;;;19.15;100.00;100994.09;5029068;28;20550;-66
2023/07/16 05:56:14;;;;;;;11.70;4.70;;;;;;;19.22;100.00;101000.72;5029403;28;20041;-67
2023/07/16 05:58:41;;;;;;;13.35;4.95;;;;;;;19.25;100.00;100997.84;5028601;28;20024;-66
2023/07/16 06:01:06;;;;;;;9.93;4.30;;;;;;;19.27;99.95;101005.75;5029542;28;20715;-66
2023/07/16 06:03:31;;;;;;;11.40;5.47;;;;;;;19.27;100.00;101008.44;5029334;28;20027;-65
2023/07/16 06:05:57;;;;;;;13.10;5.40;;;;;;;19.18;99.64;101005.41;5028356;28;20475;-67
2023/07/16 06:08:24;;;;;;;14.30;4.95;;;;;;;19.12;99.75;101003.19;5028179;28;20078;-63
2023/07/16 06:10:49;;;;;;;15.02;5.70;;;;;;;18.63;100.00;101001.94;5016879;28;20058;-62
2023/07/16 06:13:15;;;;;;;14.23;5.55;;;;;;;18.78;100.00;101006.25;5037360;28;20039;-64
2023/07/16 06:15:40;;;;;;;13.73;5.88;;;;;;;18.86;100.00;101021.78;5048195;28;20024;-64
2023/07/16 06:18:05;;;;;;;10.85;5.43;;;;;;;18.93;100.00;101027.53;5048308;28;20025;-67
2023/07/16 06:20:31;;;;;;;11.77;5.80;;;;;;;18.99;100.00;101021.81;5013722;28;20030;-66
2023/07/16 06:22:56;;;;;;;13.18;5.00;;;;;;;19.20;99.69;101016.00;5009618;28;20029;-66
2023/07/16 06:25:22;;;;;;;12.32;5.25;;;;;;;19.27;99.10;101003.09;5009374;28;20353;-67
2023/07/16 06:27:47;;;;;;;10.27;5.10;;;;;;;19.28;98.39;101024.38;5018328;28;20375;-63
2023/07/16 06:30:13;;;;;;;12.65;5.78;;;;;;;19.37;99.20;101025.53;5019548;28;20050;-69
2023/07/16 06:32:38;;;;;;;11.23;5.05;;;;;;;19.38;98.48;101035.25;5008307;28;20041;-67
2023/07/16 06:35:04;;;;;;;11.65;5.68;;;;;;;19.26;99.69;101028.94;5022124;28;20029;-69
2023/07/16 06:37:29;;;;;;;10.68;5.25;;;;;;;19.51;98.74;101047.78;5027733;28;20416;-64
2023/07/16 06:39:54;;;;;;;13.68;4.95;;;;;;;19.45;98.43;101041.91;5029090;28;20025;-62
2023/07/16 06:42:20;;;;;;;10.85;5.13;;;;;;;19.47;99.28;101043.63;5024582;28;20033;-66
2023/07/16 06:44:45;;;;;;;10.48;5.47;;;;;;;19.37;99.97;101049.59;5027980;28;20491;-65
2023/07/16 06:47:11;;;;;;;12.32;5.40;;;;;;;19.30;100.00;101040.28;5024155;28;20103;-67
2023/07/16 06:49:36;;;;;;;14.23;5.43;;;;;;;19.31;100.00;101058.03;5016916;28;20030;-67
2023/07/16 06:52:04;;;;;;;14.43;5.03;;;;;;;19.38;100.00;101045.13;5020653;28;20056;-62
2023/07/16 06:54:29;;;;;;;13.80;5.43;;;;;;;19.41;100.00;101053.75;5022320;28;20057;-65
2023/07/16 06:56:55;;;;;;;13.25;5.35;;;;;;;19.43;100.00;101054.53;5023035;28;20120;-63
2023/07/16 06:59:20;;;;;;;11.40;4.70;;;;;;;19.55;99.98;101059.97;5021029;28;20058;-66
2023/07/16 07:01:45;;;;;;;13.48;5.00;;;;;;;19.71;100.00;101065.09;5021376;28;20506;-64
2023/07/16 07:04:11;;;;;;;15.65;5.72;;;;;;;19.92;98.54;101064.56;5021016;28;20108;-63
2023/07/16 07:06:36;;;;;;;13.38;4.80;;;;;;;19.94;98.36;101060.84;5019772;28;20105;-65
2023/07/16 07:09:01;;;;;;;12.25;5.35;;;;;;;19.85;99.00;101069.50;5019409;28;20084;-65
2023/07/16 07:11:27;;;;;;;14.20;5.63;;;;;;;20.05;98.04;101069.97;5017194;28;20036;-68
2023/07/16 07:13:52;;;;;;;14.77;5.25;;;;;;;20.12;98.08;101071.22;5019535;28;20076;-66
2023/07/16 07:16:18;;;;;;;12.43;5.57;;;;;;;19.92;98.69;101092.19;5015631;28;20040;-65
2023/07/16 07:18:43;;;;;;;29.25;5.97;;;;;;;20.13;97.56;101083.63;5009822;28;20033;-64
2023/07/16 07:21:08;;;;;;;18.35;5.53;;;;;;;20.02;97.06;101088.91;5024776;28;20498;-64
2023/07/16 07:23:34;;;;;;;13.18;5.55;;;;;;;20.00;96.25;101082.75;5020498;28;20055;-65
2023/07/16 07:25:59;;;;;;;16.10;5.72;;;;;;;20.21;95.98;101077.75;5022747;28;20029;-66
2023/07/16 07:28:25;;;;;;;12.65;5.53;;;;;;;20.44;95.39;101078.75;5016954;28;20349;-66
2023/07/16 07:30:50;;;;;;;15.27;6.15;;;;;;;20.38;94.78;101089.91;5016101;28;20092;-64
2023/07/16 07:33:16;;;;;;;18.63;6.47;;;;;;;20.41;95.32;101089.69;5019265;28;20022;-67
2023/07/16 07:35:41;;;;;;;15.57;6.03;;;;;;;20.35;96.76;101108.00;5015849;28;20037;-67
2023/07/16 07:38:06;;;;;;;12.00;5.65;;;;;;;20.24;96.07;101095.38;5021231;28;20025;-66
2023/07/16 07:40:32;;;;;;;14.35;5.72;;;;;;;20.12;97.08;101099.78;5020892;28;20119;-65
2023/07/16 07:42:57;;;;;;;13.77;5.53;;;;;;;20.06;97.40;101106.44;5021600;28;20508;-63
2023/07/16 07:45:24;;;;;;;13.05;6.38;;;;;;;20.12;97.27;101102.47;5019316;28;20033;-63
2023/07/16 07:47:49;;;;;;;13.98;5.38;;;;;;;20.04;97.58;101100.31;5019724;28;20030;-66
2023/07/16 07:50:14;;;;;;;13.43;5.70;;;;;;;20.17;97.52;101106.53;5021271;28;20026;-65
2023/07/16 07:52:40;;;;;;;11.68;5.45;;;;;;;20.50;96.56;101103.38;5017528;28;20530;-66
2023/07/16 07:55:06;;;;;;;12.30;5.40;;;;;;;20.70;95.70;101100.09;5021619;28;20032;-62
2023/07/16 07:57:31;;;;;;;11.38;5.30;;;;;;;20.66;94.48;101109.34;5017851;28;20104;-68
2023/07/16 07:59:57;;;;;;;13.73;5.72;;;;;;;20.29;96.15;101117.34;5029255;28;20033;-67
2023/07/16 08:02:23;;;;;;;13.90;5.95;;;;;;;20.10;97.56;101129.31;5012366;28;20532;-67
2023/07/16 08:04:53;;;;;;;11.13;5.25;;;;;;;20.12;97.50;101132.75;5010252;28;20041;-67
2023/07/16 08:07:18;;;;;;;10.80;5.68;;;;;;;20.11;98.30;101131.06;5012129;28;20597;-67
2023/07/16 08:09:44;;;;;;;16.50;5.75;;;;;;;20.16;97.79;101139.59;5014783;28;20129;-66
2023/07/16 08:12:09;;;;;;;15.25;5.85;;;;;;;20.38;96.93;101137.22;5021197;28;20113;-63
2023/07/16 08:14:34;;;;;;;12.07;6.28;;;;;;;20.30;97.35;101130.59;5020682;28;20518;-69
2023/07/16 08:17:00;;;;;;;13.13;6.15;;;;;;;20.18;98.98;101137.69;5019076;28;20104;-64
2023/07/16 08:19:25;;;;;;;13.88;5.65;;;;;;;20.52;97.24;101129.06;5019964;28;20029;-68
2023/07/16 08:21:50;;;;;;;12.32;5.55;;;;;;;20.53;97.31;101167.41;5020631;28;20396;-64
2023/07/16 08:24:16;;;;;;;11.20;4.43;;;;;;;20.52;95.25;101144.25;5020256;28;21369;-67
2023/07/16 08:26:41;;;;;;;13.32;5.47;;;;;;;20.65;95.89;101145.09;5019806;28;20021;-68
2023/07/16 08:29:06;;;;;;;13.85;4.93;;;;;;;20.65;96.32;101150.44;5017168;28;20033;-69
2023/07/16 08:31:32;;;;;;;12.18;4.65;;;;;;;20.87;93.62;101151.56;5022261;28;20030;-63
2023/07/16 08:33:57;;;;;;;8.95;4.70;;;;;;;21.19;92.29;101145.69;5018836;28;20024;-63
2023/07/16 08:36:22;;;;;;;16.92;5.90;;;;;;;20.95;93.49;101146.53;5010276;28;20061;-68
2023/07/16 08:38:48;;;;;;;13.43;4.88;;;;;;;20.94;94.68;101149.31;5014438;28;20105;-67
2023/07/16 08:41:14;;;;;;;10.55;5.10;;;;;;;20.85;95.12;101150.81;5020515;28;20014;-68
2023/07/16 08:43:40;;;;;;;11.07;5.22;;;;;;;20.78;95.81;101160.28;5012379;28;20026;-67
2023/07/16 08:46:05;;;;;;;9.00;4.80;;;;;;;20.76;95.60;101157.69;5020155;28;20040;-66
2023/07/16 08:48:30;;;;;;;14.27;5.47;;;;;;;20.54;96.73;101169.09;5015250;28;20030;-67
2023/07/16 08:50:59;;;;;;;13.95;5.70;;;;;;;20.70;95.75;101164.38;5013320;28;20681;-67
2023/07/16 08:53:24;;;;;;;10.77;5.20;;;;;;;20.71;94.69;101167.91;5009119;28;20041;-68
2023/07/16 08:55:50;;;;;;;17.38;5.35;;;;;;;20.60;96.11;101166.00;5015351;28;20054;-72
2023/07/16 08:58:15;;;;;;;14.55;5.10;;;;;;;20.50;97.52;101184.50;5013319;28;20034;-66
2023/07/16 09:00:42;;;;;;;13.10;5.50;;;;;;;20.57;97.02;101172.44;5011674;28;20065;-70
2023/07/16 09:03:08;;;;;;;15.00;5.78;;;;;;;20.60;96.15;101178.50;5010910;28;20486;-72
2023/07/16 09:05:35;;;;;;;15.82;5.30;;;;;;;20.55;96.69;101170.81;5008975;28;20153;-72
2023/07/16 09:08:00;;;;;;;13.80;5.78;;;;;;;20.59;96.39;101175.00;5010558;28;20034;-69
2023/07/16 09:10:25;;;;;;;14.13;5.53;;;;;;;20.68;94.97;101186.88;5010380;28;20115;-69
2023/07/16 09:12:51;;;;;;;14.60;4.88;;;;;;;20.61;96.11;101182.88;5020133;28;20040;-72
2023/07/16 09:15:19;;;;;;;10.60;5.40;;;;;;;20.86;95.02;101186.50;5020817;28;20022;-65
2023/07/16 09:17:48;;;;;;;12.90;4.50;;;;;;;21.25;92.59;101175.69;5019632;28;20059;-69
2023/07/16 09:20:17;;;;;;;12.93;5.10;;;;;;;21.26;93.29;101170.22;5023941;28;20087;-69
2023/07/16 09:22:43;;;;;;;12.07;5.22;;;;;;;21.11;93.37;101190.94;5018874;28;20357;-65
2023/07/16 09:25:09;;;;;;;15.38;5.68;;;;;;;21.30;93.33;101192.25;5020861;28;20025;-75
2023/07/16 09:27:34;;;;;;;11.50;4.85;;;;;;;21.54;90.60;101172.63;5017668;28;20500;-68
2023/07/16 09:30:02;;;;;;;9.45;4.05;;;;;;;21.57;88.58;101184.00;5019382;28;20030;-72
2023/07/16 09:32:39;;;;;;;7.22;4.07;;;;;;;21.69;89.58;101181.34;5023802;28;20029;-73
2023/07/16 09:35:12;;;;;;;12.13;5.43;;;;;;;21.50;91.86;101192.59;5013501;28;20113;-72
2023/07/16 09:37:38;;;;;;;15.43;4.97;;;;;;;21.50;92.03;101176.53;5017424;28;20026;-67
2023/07/16 09:40:07;;;;;;;12.38;5.13;;;;;;;21.36;91.40;101202.53;5023852;28;20052;-73
2023/07/16 09:42:35;;;;;;;13.15;4.78;;;;;;;21.05;92.97;101199.44;5019066;28;20373;-71
2023/07/16 09:45:01;;;;;;;12.90;5.07;;;;;;;21.09;93.79;101206.28;5017905;28;20755;-70
2023/07/16 09:47:26;;;;;;;13.65;4.47;;;;;;;21.19;93.02;101198.44;5018479;28;20157;-75
2023/07/16 09:49:52;;;;;;;12.13;4.45;;;;;;;21.58;89.49;101201.78;5024587;28;20025;-61
2023/07/16 09:52:17;;;;;;;8.43;3.75;;;;;;;21.57;87.89;101201.88;5020766;28;20053;-67
2023/07/16 09:54:45;;;;;;;10.27;3.83;;;;;;;21.67;88.20;101212.78;5017606;28;20468;-66
2023/07/16 09:57:10;;;;;;;8.30;3.70;;;;;;;21.87;87.02;101211.28;5017247;28;20017;-70
2023/07/16 09:59:36;;;;;;;9.98;4.20;;;;;;;21.94;86.61;101212.53;5011798;28;20034;-77
2023/07/16 10:02:01;;;;;;;7.07;4.07;;;;;;;21.82;87.70;101218.81;5008950;28;20022;-69
2023/07/16 10:04:38;;;;;;;12.10;5.00;;;;;;;21.73;87.72;101214.16;5009520;28;20022;-59
2023/07/16 10:07:05;;;;;;;18.25;4.40;;;;;;;21.60;88.98;101228.47;5028506;28;20030;-71
2023/07/16 10:09:41;;;;;;;10.57;4.50;;;;;;;21.59;91.18;101234.81;5028854;28;20037;-70
2023/07/16 10:12:18;;;;;;;12.98;4.43;;;;;;;22.09;89.82;101220.38;5009856;28;20118;-73
2023/07/16 10:14:46;;;;;;;10.95;4.45;;;;;;;22.44;88.55;101229.34;5010225;28;20026;-74
2023/07/16 10:17:15;;;;;;;10.80;4.40;;;;;;;22.48;87.87;101225.44;5021476;28;20093;-72
2023/07/16 10:19:47;;;;;;;10.90;4.45;;;;;;;22.70;85.92;101232.66;5026970;28;20033;-66
2023/07/16 10:22:12;;;;;;;12.43;4.18;;;;;;;22.41;86.50;101233.13;5024600;28;20125;-73
2023/07/16 10:24:39;;;;;;;7.90;3.95;;;;;;;22.47;84.42;101264.88;5009269;28;20033;-76
2023/07/16 10:27:04;;;;;;;11.63;3.15;;;;;;;22.41;81.09;101235.81;5008194;28;20021;-73
2023/07/16 10:29:30;;;;;;;8.07;3.40;;;;;;;22.51;82.03;101243.16;5022438;28;20718;-74
2023/07/16 10:31:56;;;;;;;12.85;3.13;;;;;;;22.36;80.57;101255.94;5028502;28;20044;-71
2023/07/16 10:34:22;;;;;;;6.63;2.75;;;;;;;22.33;80.66;101251.63;5026078;28;20107;-72
2023/07/16 10:36:49;;;;;;;11.15;3.47;;;;;;;22.27;82.51;101246.78;5018502;28;20095;-66
2023/07/16 10:39:15;;;;;;;11.05;3.22;;;;;;;22.46;81.45;101248.88;5008496;28;20034;-64
2023/07/16 10:41:40;;;;;;;9.15;3.88;;;;;;;22.49;82.86;101251.31;5009546;28;20076;-66
2023/07/16 10:44:08;;;;;;;11.63;3.40;;;;;;;22.71;81.34;101253.19;5020449;28;20030;-68
2023/07/16 10:46:33;;;;;;;6.70;3.13;;;;;;;23.07;81.54;101242.28;5017845;28;20029;-71
2023/07/16 10:48:58;;;;;;;9.65;2.80;;;;;;;22.97;78.77;101257.47;5019940;28;20026;-65
2023/07/16 10:51:27;;;;;;;10.57;2.85;;;;;;;22.92;78.14;101256.97;5019529;28;20116;-64
2023/07/16 10:53:55;;;;;;;8.43;2.90;;;;;;;22.85;80.18;101265.50;5015521;28;20391;-70
2023/07/16 10:56:20;;;;;;;6.40;2.72;;;;;;;22.68;82.00;101266.88;5022511;28;20056;-74
2023/07/16 10:58:46;;;;;;;9.45;2.90;;;;;;;22.59;80.66;101267.59;5019471;28;20049;-74
2023/07/16 11:01:11;;;;;;;7.13;2.83;;;;;;;22.39;80.20;101291.44;5018863;28;20026;-72
2023/07/16 11:03:36;;;;;;;6.63;2.72;;;;;;;22.24;79.98;101284.59;5012010;28;20041;-74
2023/07/16 11:06:09;;;;;;;5.38;2.42;;;;;;;22.12;80.13;101283.69;5020424;28;20450;-72
2023/07/16 11:08:34;;;;;;;8.77;2.97;;;;;;;22.11;81.59;101290.88;5019093;28;20471;-68
2023/07/16 11:11:00;;;;;;;7.25;2.97;;;;;;;22.08;82.50;101299.16;5017105;28;20034;-71